sensor_id;sensor_type;location;lat;lon;timestamp;P1;durP1;ratioP1;P2;durP2;ratioP2
70457;SDS011;57919;56.194;95.716;2023-02-15T00:03:24;58.63;;;27.17;;
70457;SDS011;57919;56.194;95.716;2023-02-15T00:13:26;49.10;;;24.63;;
70457;SDS011;57919;56.194;95.716;2023-02-15T00:23:28;87.03;;;31.77;;
70457;SDS011;57919;56.194;95.716;2023-02-15T00:33:30;92.60;;;33.00;;
70457;SDS011;57919;56.194;95.716;2023-02-15T00:43:33;52.13;;;27.13;;
70457;SDS011;57919;56.194;95.716;2023-02-15T00:53:36;56.47;;;29.98;;
70457;SDS011;57919;56.194;95.716;2023-02-15T01:03:38;67.40;;;32.43;;
70457;SDS011;57919;56.194;95.716;2023-02-15T01:13:43;60.43;;;41.73;;
70457;SDS011;57919;56.194;95.716;2023-02-15T01:23:45;24.65;;;18.02;;
70457;SDS011;57919;56.194;95.716;2023-02-15T01:33:48;18.97;;;16.33;;
70457;SDS011;57919;56.194;95.716;2023-02-15T01:43:51;39.00;;;23.87;;
70457;SDS011;57919;56.194;95.716;2023-02-15T01:53:59;23.98;;;16.38;;
70457;SDS011;57919;56.194;95.716;2023-02-15T02:04:29;30.80;;;10.45;;
70457;SDS011;57919;56.194;95.716;2023-02-15T02:14:32;9.83;;;3.67;;
70457;SDS011;57919;56.194;95.716;2023-02-15T02:35:15;19.48;;;16.95;;
70457;SDS011;57919;56.194;95.716;2023-02-15T02:45:32;30.07;;;15.13;;
70457;SDS011;57919;56.194;95.716;2023-02-15T03:06:02;50.45;;;23.23;;
70457;SDS011;57919;56.194;95.716;2023-02-15T03:16:08;67.07;;;30.67;;
70457;SDS011;57919;56.194;95.716;2023-02-15T03:26:27;35.87;;;21.80;;
70457;SDS011;57919;56.194;95.716;2023-02-15T03:47:11;34.38;;;12.65;;
70457;SDS011;57919;56.194;95.716;2023-02-15T03:57:22;9.87;;;5.87;;
70457;SDS011;57919;56.194;95.716;2023-02-15T04:07:48;48.13;;;15.97;;
70457;SDS011;57919;56.194;95.716;2023-02-15T04:17:50;29.83;;;12.27;;
70457;SDS011;57919;56.194;95.716;2023-02-15T04:27:52;43.67;;;15.13;;
70457;SDS011;57919;56.194;95.716;2023-02-15T04:37:56;21.43;;;11.70;;
70457;SDS011;57919;56.194;95.716;2023-02-15T04:47:58;138.77;;;43.95;;
70457;SDS011;57919;56.194;95.716;2023-02-15T04:57:59;81.10;;;38.97;;
70457;SDS011;57919;56.194;95.716;2023-02-15T05:08:01;45.17;;;19.80;;
70457;SDS011;57919;56.194;95.716;2023-02-15T05:18:03;73.97;;;27.65;;
70457;SDS011;57919;56.194;95.716;2023-02-15T05:28:10;124.40;;;57.47;;
70457;SDS011;57919;56.194;95.716;2023-02-15T05:38:21;65.17;;;31.83;;
70457;SDS011;57919;56.194;95.716;2023-02-15T05:48:23;46.67;;;18.63;;
70457;SDS011;57919;56.194;95.716;2023-02-15T05:58:27;47.72;;;20.65;;
70457;SDS011;57919;56.194;95.716;2023-02-15T06:08:31;28.27;;;12.30;;
70457;SDS011;57919;56.194;95.716;2023-02-15T06:18:33;45.60;;;15.77;;
70457;SDS011;57919;56.194;95.716;2023-02-15T06:28:35;165.90;;;47.72;;
70457;SDS011;57919;56.194;95.716;2023-02-15T06:38:38;22.97;;;10.73;;
70457;SDS011;57919;56.194;95.716;2023-02-15T06:48:40;68.60;;;30.30;;
70457;SDS011;57919;56.194;95.716;2023-02-15T06:58:43;46.75;;;16.63;;
70457;SDS011;57919;56.194;95.716;2023-02-15T07:08:47;47.40;;;18.33;;
70457;SDS011;57919;56.194;95.716;2023-02-15T07:18:49;23.93;;;10.53;;
70457;SDS011;57919;56.194;95.716;2023-02-15T07:28:50;42.80;;;14.07;;
70457;SDS011;57919;56.194;95.716;2023-02-15T07:38:52;61.33;;;18.30;;
70457;SDS011;57919;56.194;95.716;2023-02-15T07:48:54;30.13;;;11.63;;
70457;SDS011;57919;56.194;95.716;2023-02-15T07:58:56;13.70;;;6.13;;
70457;SDS011;57919;56.194;95.716;2023-02-15T08:09:00;17.05;;;9.20;;
70457;SDS011;57919;56.194;95.716;2023-02-15T08:29:09;47.20;;;19.57;;
70457;SDS011;57919;56.194;95.716;2023-02-15T08:39:12;26.15;;;12.65;;
70457;SDS011;57919;56.194;95.716;2023-02-15T08:49:16;38.42;;;14.82;;
70457;SDS011;57919;56.194;95.716;2023-02-15T08:59:20;46.37;;;22.80;;
70457;SDS011;57919;56.194;95.716;2023-02-15T09:09:24;43.90;;;19.27;;
70457;SDS011;57919;56.194;95.716;2023-02-15T09:19:26;12.50;;;5.57;;
70457;SDS011;57919;56.194;95.716;2023-02-15T09:29:28;23.43;;;9.53;;
70457;SDS011;57919;56.194;95.716;2023-02-15T09:39:30;24.13;;;11.13;;
70457;SDS011;57919;56.194;95.716;2023-02-15T10:30:51;38.33;;;12.60;;
70457;SDS011;57919;56.194;95.716;2023-02-15T10:41:08;88.37;;;29.80;;
70457;SDS011;57919;56.194;95.716;2023-02-15T10:51:19;41.07;;;17.73;;
70457;SDS011;57919;56.194;95.716;2023-02-15T11:11:58;107.10;;;41.67;;
70457;SDS011;57919;56.194;95.716;2023-02-15T11:22:02;119.50;;;49.73;;
70457;SDS011;57919;56.194;95.716;2023-02-15T11:32:17;179.10;;;87.00;;
70457;SDS011;57919;56.194;95.716;2023-02-15T11:42:23;226.70;;;103.80;;
70457;SDS011;57919;56.194;95.716;2023-02-15T11:52:27;199.87;;;100.10;;
70457;SDS011;57919;56.194;95.716;2023-02-15T12:02:29;217.90;;;100.70;;
70457;SDS011;57919;56.194;95.716;2023-02-15T12:12:34;86.70;;;39.13;;
70457;SDS011;57919;56.194;95.716;2023-02-15T12:22:37;76.17;;;39.20;;
70457;SDS011;57919;56.194;95.716;2023-02-15T12:42:59;66.05;;;34.30;;
70457;SDS011;57919;56.194;95.716;2023-02-15T12:53:35;83.07;;;38.43;;
70457;SDS011;57919;56.194;95.716;2023-02-15T13:03:35;183.17;;;77.60;;
70457;SDS011;57919;56.194;95.716;2023-02-15T13:13:58;139.48;;;72.05;;
70457;SDS011;57919;56.194;95.716;2023-02-15T13:24:05;141.50;;;78.47;;
70457;SDS011;57919;56.194;95.716;2023-02-15T13:34:18;255.93;;;100.73;;
70457;SDS011;57919;56.194;95.716;2023-02-15T14:25:48;75.40;;;40.17;;
70457;SDS011;57919;56.194;95.716;2023-02-15T14:35:58;99.17;;;47.20;;
70457;SDS011;57919;56.194;95.716;2023-02-15T14:56:27;245.93;;;120.35;;
70457;SDS011;57919;56.194;95.716;2023-02-15T15:06:34;166.17;;;98.67;;
70457;SDS011;57919;56.194;95.716;2023-02-15T15:26:42;129.82;;;66.18;;
70457;SDS011;57919;56.194;95.716;2023-02-15T15:57:45;58.23;;;32.83;;
70457;SDS011;57919;56.194;95.716;2023-02-15T16:07:51;23.77;;;15.52;;
70457;SDS011;57919;56.194;95.716;2023-02-15T16:17:54;128.03;;;68.43;;
70457;SDS011;57919;56.194;95.716;2023-02-15T16:28:05;136.73;;;71.53;;
70457;SDS011;57919;56.194;95.716;2023-02-15T16:38:09;202.77;;;95.70;;
70457;SDS011;57919;56.194;95.716;2023-02-15T16:48:16;138.67;;;75.43;;
70457;SDS011;57919;56.194;95.716;2023-02-15T16:58:31;131.33;;;76.07;;
70457;SDS011;57919;56.194;95.716;2023-02-15T17:08:50;141.02;;;87.70;;
70457;SDS011;57919;56.194;95.716;2023-02-15T17:18:52;86.30;;;40.45;;
70457;SDS011;57919;56.194;95.716;2023-02-15T17:28:56;33.07;;;23.43;;
70457;SDS011;57919;56.194;95.716;2023-02-15T17:39:12;140.50;;;95.03;;
70457;SDS011;57919;56.194;95.716;2023-02-15T17:49:24;77.32;;;35.83;;
70457;SDS011;57919;56.194;95.716;2023-02-15T17:59:34;68.17;;;31.60;;
70457;SDS011;57919;56.194;95.716;2023-02-15T18:09:55;69.33;;;36.17;;
70457;SDS011;57919;56.194;95.716;2023-02-15T18:20:19;56.58;;;37.40;;
70457;SDS011;57919;56.194;95.716;2023-02-15T18:30:24;40.83;;;30.97;;
70457;SDS011;57919;56.194;95.716;2023-02-15T18:40:27;65.47;;;46.80;;
70457;SDS011;57919;56.194;95.716;2023-02-15T18:50:32;57.95;;;34.72;;
70457;SDS011;57919;56.194;95.716;2023-02-15T19:00:37;87.43;;;39.67;;
70457;SDS011;57919;56.194;95.716;2023-02-15T19:10:38;40.67;;;27.87;;
70457;SDS011;57919;56.194;95.716;2023-02-15T19:20:41;43.23;;;27.13;;
70457;SDS011;57919;56.194;95.716;2023-02-15T19:30:45;27.20;;;10.70;;
70457;SDS011;57919;56.194;95.716;2023-02-15T19:40:47;4.20;;;3.90;;
70457;SDS011;57919;56.194;95.716;2023-02-15T19:50:50;56.13;;;27.83;;
70457;SDS011;57919;56.194;95.716;2023-02-15T20:00:52;37.90;;;15.63;;
70457;SDS011;57919;56.194;95.716;2023-02-15T20:10:55;5.33;;;4.30;;
70457;SDS011;57919;56.194;95.716;2023-02-15T20:20:59;5.10;;;4.20;;
70457;SDS011;57919;56.194;95.716;2023-02-15T20:31:02;12.43;;;7.78;;
70457;SDS011;57919;56.194;95.716;2023-02-15T20:41:04;3.97;;;2.47;;
70457;SDS011;57919;56.194;95.716;2023-02-15T20:51:24;65.33;;;33.30;;
70457;SDS011;57919;56.194;95.716;2023-02-15T21:01:26;31.47;;;21.73;;
70457;SDS011;57919;56.194;95.716;2023-02-15T21:11:28;18.98;;;11.35;;
70457;SDS011;57919;56.194;95.716;2023-02-15T21:21:30;10.27;;;6.40;;
70457;SDS011;57919;56.194;95.716;2023-02-15T21:31:32;28.60;;;11.83;;
70457;SDS011;57919;56.194;95.716;2023-02-15T21:41:34;28.73;;;13.10;;
70457;SDS011;57919;56.194;95.716;2023-02-15T21:51:54;4.00;;;2.77;;
70457;SDS011;57919;56.194;95.716;2023-02-15T22:02:25;40.80;;;11.50;;
70457;SDS011;57919;56.194;95.716;2023-02-15T22:12:29;7.00;;;3.28;;
70457;SDS011;57919;56.194;95.716;2023-02-15T22:22:31;7.95;;;5.53;;
70457;SDS011;57919;56.194;95.716;2023-02-15T22:32:34;9.90;;;5.80;;
70457;SDS011;57919;56.194;95.716;2023-02-15T22:42:36;3.33;;;3.03;;
70457;SDS011;57919;56.194;95.716;2023-02-15T22:52:39;4.20;;;3.70;;
70457;SDS011;57919;56.194;95.716;2023-02-15T23:02:41;8.40;;;6.90;;
70457;SDS011;57919;56.194;95.716;2023-02-15T23:12:43;28.83;;;16.90;;
70457;SDS011;57919;56.194;95.716;2023-02-15T23:23:03;3.95;;;2.65;;
70457;SDS011;57919;56.194;95.716;2023-02-15T23:33:07;30.07;;;22.97;;
70457;SDS011;57919;56.194;95.716;2023-02-15T23:43:14;14.70;;;12.17;;
70457;SDS011;57919;56.194;95.716;2023-02-15T23:53:22;13.73;;;9.65;;
